sensor_id;sensor_type;location;lat;lon;timestamp;temperature;humidity
54590;DHT22;40485;53.172;5.416;2022-08-24T00:01:08;21.40;94.60
54590;DHT22;40485;53.172;5.416;2022-08-24T00:03:35;21.40;94.70
54590;DHT22;40485;53.172;5.416;2022-08-24T00:06:02;21.30;94.70
54590;DHT22;40485;53.172;5.416;2022-08-24T00:08:28;21.30;94.80
54590;DHT22;40485;53.172;5.416;2022-08-24T00:10:54;21.30;94.80
54590;DHT22;40485;53.172;5.416;2022-08-24T00:13:19;21.30;94.90
54590;DHT22;40485;53.172;5.416;2022-08-24T00:15:45;21.30;94.90
54590;DHT22;40485;53.172;5.416;2022-08-24T00:18:11;21.30;95.00
54590;DHT22;40485;53.172;5.416;2022-08-24T00:20:36;21.20;94.90
54590;DHT22;40485;53.172;5.416;2022-08-24T00:23:02;21.20;95.00
54590;DHT22;40485;53.172;5.416;2022-08-24T00:25:28;21.20;95.10
54590;DHT22;40485;53.172;5.416;2022-08-24T00:27:53;21.20;95.10
54590;DHT22;40485;53.172;5.416;2022-08-24T00:30:19;21.20;95.10
54590;DHT22;40485;53.172;5.416;2022-08-24T00:32:46;21.20;95.30
54590;DHT22;40485;53.172;5.416;2022-08-24T00:35:12;21.20;95.40
54590;DHT22;40485;53.172;5.416;2022-08-24T00:37:38;21.20;95.50
54590;DHT22;40485;53.172;5.416;2022-08-24T00:40:06;21.20;95.40
54590;DHT22;40485;53.172;5.416;2022-08-24T00:42:32;21.20;95.40
54590;DHT22;40485;53.172;5.416;2022-08-24T00:44:58;21.20;95.60
54590;DHT22;40485;53.172;5.416;2022-08-24T00:47:25;21.20;95.60
54590;DHT22;40485;53.172;5.416;2022-08-24T00:50:03;21.20;95.40
54590;DHT22;40485;53.172;5.416;2022-08-24T00:52:33;21.20;95.40
54590;DHT22;40485;53.172;5.416;2022-08-24T00:55:01;21.10;95.50
54590;DHT22;40485;53.172;5.416;2022-08-24T00:57:31;21.30;95.50
54590;DHT22;40485;53.172;5.416;2022-08-24T00:59:59;21.10;95.60
54590;DHT22;40485;53.172;5.416;2022-08-24T01:02:28;21.10;95.60
54590;DHT22;40485;53.172;5.416;2022-08-24T01:04:56;21.10;95.70
54590;DHT22;40485;53.172;5.416;2022-08-24T01:07:22;21.10;95.70
54590;DHT22;40485;53.172;5.416;2022-08-24T01:09:49;21.10;95.70
54590;DHT22;40485;53.172;5.416;2022-08-24T01:12:15;21.10;95.70
54590;DHT22;40485;53.172;5.416;2022-08-24T01:14:41;21.00;95.70
54590;DHT22;40485;53.172;5.416;2022-08-24T01:17:07;21.00;95.80
54590;DHT22;40485;53.172;5.416;2022-08-24T01:19:53;21.00;95.90
54590;DHT22;40485;53.172;5.416;2022-08-24T01:24:51;21.00;95.90
54590;DHT22;40485;53.172;5.416;2022-08-24T01:27:16;21.00;96.00
54590;DHT22;40485;53.172;5.416;2022-08-24T01:29:43;21.00;96.20
54590;DHT22;40485;53.172;5.416;2022-08-24T01:32:10;21.00;96.10
54590;DHT22;40485;53.172;5.416;2022-08-24T01:34:36;21.00;96.10
54590;DHT22;40485;53.172;5.416;2022-08-24T01:37:01;21.00;96.00
54590;DHT22;40485;53.172;5.416;2022-08-24T01:39:31;20.90;96.00
54590;DHT22;40485;53.172;5.416;2022-08-24T01:41:58;20.90;96.10
54590;DHT22;40485;53.172;5.416;2022-08-24T01:44:25;20.90;96.30
54590;DHT22;40485;53.172;5.416;2022-08-24T01:46:51;20.90;96.40
54590;DHT22;40485;53.172;5.416;2022-08-24T01:49:18;20.90;96.30
54590;DHT22;40485;53.172;5.416;2022-08-24T01:51:44;20.90;96.40
54590;DHT22;40485;53.172;5.416;2022-08-24T01:54:10;20.80;96.70
54590;DHT22;40485;53.172;5.416;2022-08-24T01:56:36;20.90;96.60
54590;DHT22;40485;53.172;5.416;2022-08-24T01:59:02;20.80;96.70
54590;DHT22;40485;53.172;5.416;2022-08-24T02:01:28;20.90;96.90
54590;DHT22;40485;53.172;5.416;2022-08-24T02:03:55;20.80;96.80
54590;DHT22;40485;53.172;5.416;2022-08-24T02:06:21;20.80;96.90
54590;DHT22;40485;53.172;5.416;2022-08-24T02:08:47;20.90;97.00
54590;DHT22;40485;53.172;5.416;2022-08-24T02:11:12;20.80;97.00
54590;DHT22;40485;53.172;5.416;2022-08-24T02:13:38;20.90;96.90
54590;DHT22;40485;53.172;5.416;2022-08-24T02:16:04;20.90;97.20
54590;DHT22;40485;53.172;5.416;2022-08-24T02:18:31;20.80;97.00
54590;DHT22;40485;53.172;5.416;2022-08-24T02:20:58;20.80;96.90
54590;DHT22;40485;53.172;5.416;2022-08-24T02:23:23;20.80;97.40
54590;DHT22;40485;53.172;5.416;2022-08-24T02:25:49;20.80;97.10
54590;DHT22;40485;53.172;5.416;2022-08-24T02:28:16;20.80;97.50
54590;DHT22;40485;53.172;5.416;2022-08-24T02:30:42;20.80;98.10
54590;DHT22;40485;53.172;5.416;2022-08-24T02:33:08;20.80;97.60
54590;DHT22;40485;53.172;5.416;2022-08-24T02:35:34;20.80;98.00
54590;DHT22;40485;53.172;5.416;2022-08-24T02:37:59;20.80;98.30
54590;DHT22;40485;53.172;5.416;2022-08-24T02:40:25;20.80;98.60
54590;DHT22;40485;53.172;5.416;2022-08-24T02:42:51;20.80;98.10
54590;DHT22;40485;53.172;5.416;2022-08-24T02:45:17;20.90;98.00
54590;DHT22;40485;53.172;5.416;2022-08-24T02:47:43;20.90;98.10
54590;DHT22;40485;53.172;5.416;2022-08-24T02:50:10;20.90;98.40
54590;DHT22;40485;53.172;5.416;2022-08-24T02:52:37;20.90;98.70
54590;DHT22;40485;53.172;5.416;2022-08-24T02:55:04;20.90;98.50
54590;DHT22;40485;53.172;5.416;2022-08-24T02:57:30;20.90;98.50
54590;DHT22;40485;53.172;5.416;2022-08-24T02:59:55;20.80;98.50
54590;DHT22;40485;53.172;5.416;2022-08-24T03:02:21;20.80;98.50
54590;DHT22;40485;53.172;5.416;2022-08-24T03:04:46;20.80;98.50
54590;DHT22;40485;53.172;5.416;2022-08-24T03:07:12;20.70;98.70
54590;DHT22;40485;53.172;5.416;2022-08-24T03:09:37;20.70;99.00
54590;DHT22;40485;53.172;5.416;2022-08-24T03:12:03;20.70;98.80
54590;DHT22;40485;53.172;5.416;2022-08-24T03:14:28;20.70;98.80
54590;DHT22;40485;53.172;5.416;2022-08-24T03:16:54;20.70;99.00
54590;DHT22;40485;53.172;5.416;2022-08-24T03:19:19;20.70;99.10
54590;DHT22;40485;53.172;5.416;2022-08-24T03:21:46;20.60;99.30
54590;DHT22;40485;53.172;5.416;2022-08-24T03:24:12;20.50;99.20
54590;DHT22;40485;53.172;5.416;2022-08-24T03:26:38;20.50;99.40
54590;DHT22;40485;53.172;5.416;2022-08-24T03:29:04;20.50;99.50
54590;DHT22;40485;53.172;5.416;2022-08-24T03:31:30;20.40;99.60
54590;DHT22;40485;53.172;5.416;2022-08-24T03:33:55;20.40;99.60
54590;DHT22;40485;53.172;5.416;2022-08-24T03:36:21;20.40;99.90
54590;DHT22;40485;53.172;5.416;2022-08-24T03:38:46;20.30;99.70
54590;DHT22;40485;53.172;5.416;2022-08-24T03:41:12;20.30;99.90
54590;DHT22;40485;53.172;5.416;2022-08-24T03:43:38;20.30;99.90
54590;DHT22;40485;53.172;5.416;2022-08-24T03:46:11;20.40;99.90
54590;DHT22;40485;53.172;5.416;2022-08-24T03:48:36;20.30;99.90
54590;DHT22;40485;53.172;5.416;2022-08-24T03:51:03;20.30;99.90
54590;DHT22;40485;53.172;5.416;2022-08-24T03:53:28;20.30;99.90
54590;DHT22;40485;53.172;5.416;2022-08-24T03:55:54;20.30;99.90
54590;DHT22;40485;53.172;5.416;2022-08-24T03:58:19;20.30;99.90
54590;DHT22;40485;53.172;5.416;2022-08-24T04:00:45;20.30;99.90
54590;DHT22;40485;53.172;5.416;2022-08-24T04:03:11;20.20;99.90
54590;DHT22;40485;53.172;5.416;2022-08-24T04:05:37;20.30;99.90
54590;DHT22;40485;53.172;5.416;2022-08-24T04:08:03;20.20;99.90
54590;DHT22;40485;53.172;5.416;2022-08-24T04:10:29;20.20;99.90
54590;DHT22;40485;53.172;5.416;2022-08-24T04:12:55;20.30;99.90
54590;DHT22;40485;53.172;5.416;2022-08-24T04:15:20;20.20;99.90
54590;DHT22;40485;53.172;5.416;2022-08-24T04:17:48;20.20;99.90
54590;DHT22;40485;53.172;5.416;2022-08-24T04:20:14;20.20;99.90
54590;DHT22;40485;53.172;5.416;2022-08-24T04:22:39;20.20;99.90
54590;DHT22;40485;53.172;5.416;2022-08-24T04:25:05;20.20;99.90
54590;DHT22;40485;53.172;5.416;2022-08-24T04:27:31;20.20;99.90
54590;DHT22;40485;53.172;5.416;2022-08-24T04:29:57;20.10;99.90
54590;DHT22;40485;53.172;5.416;2022-08-24T04:32:22;20.10;99.90
54590;DHT22;40485;53.172;5.416;2022-08-24T04:34:48;20.10;99.90
54590;DHT22;40485;53.172;5.416;2022-08-24T04:37:13;20.10;99.90
54590;DHT22;40485;53.172;5.416;2022-08-24T04:39:39;20.10;99.90
54590;DHT22;40485;53.172;5.416;2022-08-24T04:42:06;20.10;99.90
54590;DHT22;40485;53.172;5.416;2022-08-24T04:44:32;20.00;99.90
54590;DHT22;40485;53.172;5.416;2022-08-24T04:46:57;20.00;99.90
54590;DHT22;40485;53.172;5.416;2022-08-24T04:49:23;20.10;99.90
54590;DHT22;40485;53.172;5.416;2022-08-24T04:51:49;20.00;99.90
54590;DHT22;40485;53.172;5.416;2022-08-24T04:54:14;20.10;99.90
54590;DHT22;40485;53.172;5.416;2022-08-24T04:56:40;20.10;99.90
54590;DHT22;40485;53.172;5.416;2022-08-24T04:59:05;20.00;99.90
54590;DHT22;40485;53.172;5.416;2022-08-24T05:01:31;20.10;99.90
54590;DHT22;40485;53.172;5.416;2022-08-24T05:03:57;20.10;99.90
54590;DHT22;40485;53.172;5.416;2022-08-24T05:06:24;20.10;99.90
54590;DHT22;40485;53.172;5.416;2022-08-24T05:08:50;20.10;99.90
54590;DHT22;40485;53.172;5.416;2022-08-24T05:11:16;20.30;99.90
54590;DHT22;40485;53.172;5.416;2022-08-24T05:13:42;20.10;99.90
54590;DHT22;40485;53.172;5.416;2022-08-24T05:16:09;20.20;99.90
54590;DHT22;40485;53.172;5.416;2022-08-24T05:18:34;20.20;99.90
54590;DHT22;40485;53.172;5.416;2022-08-24T05:21:00;20.20;99.90
54590;DHT22;40485;53.172;5.416;2022-08-24T05:23:25;20.20;99.90
54590;DHT22;40485;53.172;5.416;2022-08-24T05:25:51;20.30;99.90
54590;DHT22;40485;53.172;5.416;2022-08-24T05:28:17;20.20;99.90
54590;DHT22;40485;53.172;5.416;2022-08-24T05:30:42;20.30;99.90
54590;DHT22;40485;53.172;5.416;2022-08-24T05:33:08;20.40;99.90
54590;DHT22;40485;53.172;5.416;2022-08-24T05:35:37;20.30;99.90
54590;DHT22;40485;53.172;5.416;2022-08-24T05:38:03;20.40;99.90
54590;DHT22;40485;53.172;5.416;2022-08-24T05:40:28;20.40;99.90
54590;DHT22;40485;53.172;5.416;2022-08-24T05:42:54;20.40;99.90
54590;DHT22;40485;53.172;5.416;2022-08-24T05:45:19;20.40;99.90
54590;DHT22;40485;53.172;5.416;2022-08-24T05:47:45;20.40;99.90
54590;DHT22;40485;53.172;5.416;2022-08-24T05:50:10;20.50;99.90
54590;DHT22;40485;53.172;5.416;2022-08-24T05:52:36;20.50;99.90
54590;DHT22;40485;53.172;5.416;2022-08-24T05:55:01;20.60;99.90
54590;DHT22;40485;53.172;5.416;2022-08-24T05:57:30;20.60;99.90
54590;DHT22;40485;53.172;5.416;2022-08-24T05:59:56;20.70;99.90
54590;DHT22;40485;53.172;5.416;2022-08-24T06:02:21;20.70;99.90
54590;DHT22;40485;53.172;5.416;2022-08-24T06:04:48;20.70;99.90
54590;DHT22;40485;53.172;5.416;2022-08-24T06:07:14;20.80;99.90
54590;DHT22;40485;53.172;5.416;2022-08-24T06:09:40;20.80;99.90
54590;DHT22;40485;53.172;5.416;2022-08-24T06:12:06;20.90;99.90
54590;DHT22;40485;53.172;5.416;2022-08-24T06:14:32;20.90;99.90
54590;DHT22;40485;53.172;5.416;2022-08-24T06:16:58;21.00;99.90
54590;DHT22;40485;53.172;5.416;2022-08-24T06:19:24;21.10;99.90
54590;DHT22;40485;53.172;5.416;2022-08-24T06:21:51;21.20;99.90
54590;DHT22;40485;53.172;5.416;2022-08-24T06:24:17;21.30;99.90
54590;DHT22;40485;53.172;5.416;2022-08-24T06:26:43;21.30;99.90
54590;DHT22;40485;53.172;5.416;2022-08-24T06:29:28;21.40;99.90
54590;DHT22;40485;53.172;5.416;2022-08-24T06:31:54;21.40;99.90
54590;DHT22;40485;53.172;5.416;2022-08-24T06:34:21;21.60;99.90
54590;DHT22;40485;53.172;5.416;2022-08-24T06:36:46;21.60;99.90
54590;DHT22;40485;53.172;5.416;2022-08-24T06:39:12;21.70;99.90
54590;DHT22;40485;53.172;5.416;2022-08-24T06:41:38;21.80;99.90
54590;DHT22;40485;53.172;5.416;2022-08-24T06:44:04;21.80;99.90
54590;DHT22;40485;53.172;5.416;2022-08-24T06:46:30;21.90;99.90
54590;DHT22;40485;53.172;5.416;2022-08-24T06:48:56;22.00;99.90
54590;DHT22;40485;53.172;5.416;2022-08-24T06:51:22;22.00;99.90
54590;DHT22;40485;53.172;5.416;2022-08-24T06:53:48;22.00;99.90
54590;DHT22;40485;53.172;5.416;2022-08-24T06:56:14;22.10;99.90
54590;DHT22;40485;53.172;5.416;2022-08-24T06:58:40;22.20;99.90
54590;DHT22;40485;53.172;5.416;2022-08-24T07:01:06;22.20;99.90
54590;DHT22;40485;53.172;5.416;2022-08-24T07:03:32;22.30;99.90
54590;DHT22;40485;53.172;5.416;2022-08-24T07:05:58;22.30;99.90
54590;DHT22;40485;53.172;5.416;2022-08-24T07:08:23;22.40;99.90
54590;DHT22;40485;53.172;5.416;2022-08-24T07:10:49;22.40;99.90
54590;DHT22;40485;53.172;5.416;2022-08-24T07:13:15;22.50;99.90
54590;DHT22;40485;53.172;5.416;2022-08-24T07:15:41;22.50;99.90
54590;DHT22;40485;53.172;5.416;2022-08-24T07:18:09;22.50;99.90
54590;DHT22;40485;53.172;5.416;2022-08-24T07:20:35;22.60;99.90
54590;DHT22;40485;53.172;5.416;2022-08-24T07:23:02;22.70;99.90
54590;DHT22;40485;53.172;5.416;2022-08-24T07:25:29;22.70;99.90
54590;DHT22;40485;53.172;5.416;2022-08-24T07:27:54;22.80;99.90
54590;DHT22;40485;53.172;5.416;2022-08-24T07:30:20;22.90;99.90
54590;DHT22;40485;53.172;5.416;2022-08-24T07:32:45;22.90;99.90
54590;DHT22;40485;53.172;5.416;2022-08-24T07:35:11;23.00;99.90
54590;DHT22;40485;53.172;5.416;2022-08-24T07:37:36;23.00;99.90
54590;DHT22;40485;53.172;5.416;2022-08-24T07:40:02;23.10;99.90
54590;DHT22;40485;53.172;5.416;2022-08-24T07:42:28;23.10;99.90
54590;DHT22;40485;53.172;5.416;2022-08-24T07:44:53;23.20;99.90
54590;DHT22;40485;53.172;5.416;2022-08-24T07:47:19;23.20;99.90
54590;DHT22;40485;53.172;5.416;2022-08-24T07:49:45;23.30;99.80
54590;DHT22;40485;53.172;5.416;2022-08-24T07:52:11;23.40;99.70
54590;DHT22;40485;53.172;5.416;2022-08-24T07:54:36;23.40;99.50
54590;DHT22;40485;53.172;5.416;2022-08-24T07:57:02;23.50;99.40
54590;DHT22;40485;53.172;5.416;2022-08-24T07:59:31;23.60;99.10
54590;DHT22;40485;53.172;5.416;2022-08-24T08:01:57;23.60;98.90
54590;DHT22;40485;53.172;5.416;2022-08-24T08:04:22;23.70;98.50
54590;DHT22;40485;53.172;5.416;2022-08-24T08:06:49;23.80;98.70
54590;DHT22;40485;53.172;5.416;2022-08-24T08:09:15;23.80;98.30
54590;DHT22;40485;53.172;5.416;2022-08-24T08:11:40;23.90;98.30
54590;DHT22;40485;53.172;5.416;2022-08-24T08:14:06;23.90;98.20
54590;DHT22;40485;53.172;5.416;2022-08-24T08:16:32;24.00;98.10
54590;DHT22;40485;53.172;5.416;2022-08-24T08:18:57;24.10;97.80
54590;DHT22;40485;53.172;5.416;2022-08-24T08:21:23;24.20;97.90
54590;DHT22;40485;53.172;5.416;2022-08-24T08:24:07;24.30;97.70
54590;DHT22;40485;53.172;5.416;2022-08-24T08:26:43;24.40;96.80
54590;DHT22;40485;53.172;5.416;2022-08-24T08:29:09;24.40;97.00
54590;DHT22;40485;53.172;5.416;2022-08-24T08:31:35;24.50;97.20
54590;DHT22;40485;53.172;5.416;2022-08-24T08:34:02;24.60;97.20
54590;DHT22;40485;53.172;5.416;2022-08-24T08:36:28;24.60;97.10
54590;DHT22;40485;53.172;5.416;2022-08-24T08:38:53;24.70;97.30
54590;DHT22;40485;53.172;5.416;2022-08-24T08:43:56;24.80;96.70
54590;DHT22;40485;53.172;5.416;2022-08-24T08:49:02;24.90;97.00
54590;DHT22;40485;53.172;5.416;2022-08-24T08:51:32;25.00;96.70
54590;DHT22;40485;53.172;5.416;2022-08-24T09:09:24;25.40;95.90
54590;DHT22;40485;53.172;5.416;2022-08-24T09:14:32;25.50;95.80
54590;DHT22;40485;53.172;5.416;2022-08-24T09:22:15;25.70;95.60
54590;DHT22;40485;53.172;5.416;2022-08-24T09:35:01;25.90;95.60
54590;DHT22;40485;53.172;5.416;2022-08-24T09:47:45;26.10;95.00
54590;DHT22;40485;53.172;5.416;2022-08-24T09:50:30;26.30;94.90
54590;DHT22;40485;53.172;5.416;2022-08-24T10:01:50;26.60;94.60
54590;DHT22;40485;53.172;5.416;2022-08-24T10:04:07;26.80;94.30
54590;DHT22;40485;53.172;5.416;2022-08-24T10:09:35;26.90;93.70
54590;DHT22;40485;53.172;5.416;2022-08-24T10:12:13;26.90;93.60
54590;DHT22;40485;53.172;5.416;2022-08-24T10:17:12;27.20;93.90
54590;DHT22;40485;53.172;5.416;2022-08-24T10:28:35;27.70;93.10
54590;DHT22;40485;53.172;5.416;2022-08-24T10:30:51;27.80;93.10
54590;DHT22;40485;53.172;5.416;2022-08-24T10:33:26;27.80;92.70
54590;DHT22;40485;53.172;5.416;2022-08-24T10:41:53;27.90;92.10
54590;DHT22;40485;53.172;5.416;2022-08-24T10:46:57;27.90;92.10
54590;DHT22;40485;53.172;5.416;2022-08-24T10:49:30;27.90;92.30
54590;DHT22;40485;53.172;5.416;2022-08-24T10:54:31;28.10;91.90
54590;DHT22;40485;53.172;5.416;2022-08-24T10:59:35;28.10;91.70
54590;DHT22;40485;53.172;5.416;2022-08-24T11:02:27;28.20;91.80
54590;DHT22;40485;53.172;5.416;2022-08-24T11:04:54;28.20;91.90
54590;DHT22;40485;53.172;5.416;2022-08-24T11:07:20;28.30;91.70
54590;DHT22;40485;53.172;5.416;2022-08-24T11:09:50;28.40;91.30
54590;DHT22;40485;53.172;5.416;2022-08-24T11:12:21;28.50;91.00
54590;DHT22;40485;53.172;5.416;2022-08-24T11:14:48;28.50;91.00
54590;DHT22;40485;53.172;5.416;2022-08-24T11:17:14;28.50;90.90
54590;DHT22;40485;53.172;5.416;2022-08-24T11:19:41;28.60;91.10
54590;DHT22;40485;53.172;5.416;2022-08-24T11:24:53;28.60;90.90
54590;DHT22;40485;53.172;5.416;2022-08-24T11:30:42;28.80;90.80
54590;DHT22;40485;53.172;5.416;2022-08-24T11:40:35;29.20;90.20
54590;DHT22;40485;53.172;5.416;2022-08-24T11:43:05;29.30;90.10
54590;DHT22;40485;53.172;5.416;2022-08-24T11:48:03;29.40;89.60
54590;DHT22;40485;53.172;5.416;2022-08-24T11:55:35;29.50;89.60
54590;DHT22;40485;53.172;5.416;2022-08-24T12:03:53;29.60;88.20
54590;DHT22;40485;53.172;5.416;2022-08-24T12:11:33;29.70;88.00
54590;DHT22;40485;53.172;5.416;2022-08-24T12:14:01;29.70;88.30
54590;DHT22;40485;53.172;5.416;2022-08-24T12:16:42;29.80;88.20
54590;DHT22;40485;53.172;5.416;2022-08-24T12:21:36;30.00;87.20
54590;DHT22;40485;53.172;5.416;2022-08-24T12:24:03;30.10;86.60
54590;DHT22;40485;53.172;5.416;2022-08-24T12:29:00;30.20;87.10
54590;DHT22;40485;53.172;5.416;2022-08-24T12:33:56;30.50;86.00
54590;DHT22;40485;53.172;5.416;2022-08-24T12:36:27;30.50;85.70
54590;DHT22;40485;53.172;5.416;2022-08-24T12:39:08;30.60;85.50
54590;DHT22;40485;53.172;5.416;2022-08-24T12:41:47;30.70;85.00
54590;DHT22;40485;53.172;5.416;2022-08-24T12:44:14;30.80;84.30
54590;DHT22;40485;53.172;5.416;2022-08-24T12:46:40;30.80;83.90
54590;DHT22;40485;53.172;5.416;2022-08-24T12:59:35;31.10;84.20
54590;DHT22;40485;53.172;5.416;2022-08-24T13:02:07;31.20;83.50
54590;DHT22;40485;53.172;5.416;2022-08-24T13:09:45;31.10;83.70
54590;DHT22;40485;53.172;5.416;2022-08-24T13:17:56;30.90;83.90
54590;DHT22;40485;53.172;5.416;2022-08-24T13:20:25;31.00;83.60
54590;DHT22;40485;53.172;5.416;2022-08-24T13:23:05;31.00;83.70
54590;DHT22;40485;53.172;5.416;2022-08-24T13:26:18;31.00;84.20
54590;DHT22;40485;53.172;5.416;2022-08-24T13:28:31;31.10;83.90
54590;DHT22;40485;53.172;5.416;2022-08-24T13:41:19;31.20;84.20
54590;DHT22;40485;53.172;5.416;2022-08-24T13:49:01;31.20;83.60
54590;DHT22;40485;53.172;5.416;2022-08-24T13:51:39;31.20;83.50
54590;DHT22;40485;53.172;5.416;2022-08-24T13:54:13;31.20;83.50
54590;DHT22;40485;53.172;5.416;2022-08-24T13:56:46;31.10;82.90
54590;DHT22;40485;53.172;5.416;2022-08-24T13:59:16;31.10;83.40
54590;DHT22;40485;53.172;5.416;2022-08-24T14:01:50;31.10;82.80
54590;DHT22;40485;53.172;5.416;2022-08-24T14:17:15;31.40;80.50
54590;DHT22;40485;53.172;5.416;2022-08-24T14:32:43;31.10;82.30
54590;DHT22;40485;53.172;5.416;2022-08-24T14:37:47;31.10;81.40
54590;DHT22;40485;53.172;5.416;2022-08-24T14:40:19;31.20;81.50
54590;DHT22;40485;53.172;5.416;2022-08-24T14:42:54;31.00;81.50
54590;DHT22;40485;53.172;5.416;2022-08-24T14:51:02;30.90;82.00
54590;DHT22;40485;53.172;5.416;2022-08-24T14:53:43;30.80;82.50
54590;DHT22;40485;53.172;5.416;2022-08-24T15:01:04;30.70;84.50
54590;DHT22;40485;53.172;5.416;2022-08-24T15:06:23;30.70;83.90
54590;DHT22;40485;53.172;5.416;2022-08-24T15:08:49;30.70;84.20
54590;DHT22;40485;53.172;5.416;2022-08-24T15:11:16;30.70;84.40
54590;DHT22;40485;53.172;5.416;2022-08-24T15:28:45;30.30;87.60
54590;DHT22;40485;53.172;5.416;2022-08-24T15:31:11;30.10;88.10
54590;DHT22;40485;53.172;5.416;2022-08-24T15:36:17;29.80;89.30
54590;DHT22;40485;53.172;5.416;2022-08-24T15:38:43;29.60;90.00
54590;DHT22;40485;53.172;5.416;2022-08-24T15:46:09;29.20;90.50
54590;DHT22;40485;53.172;5.416;2022-08-24T15:48:35;29.10;90.70
54590;DHT22;40485;53.172;5.416;2022-08-24T15:51:01;29.00;90.90
54590;DHT22;40485;53.172;5.416;2022-08-24T15:53:31;28.90;90.90
54590;DHT22;40485;53.172;5.416;2022-08-24T15:55:59;28.90;91.20
54590;DHT22;40485;53.172;5.416;2022-08-24T15:58:34;28.80;91.20
54590;DHT22;40485;53.172;5.416;2022-08-24T16:03:54;28.90;91.20
54590;DHT22;40485;53.172;5.416;2022-08-24T16:11:25;29.00;91.10
54590;DHT22;40485;53.172;5.416;2022-08-24T16:13:52;29.00;91.10
54590;DHT22;40485;53.172;5.416;2022-08-24T16:16:17;29.00;90.90
54590;DHT22;40485;53.172;5.416;2022-08-24T16:18:56;29.00;90.80
54590;DHT22;40485;53.172;5.416;2022-08-24T16:24:01;29.00;90.60
54590;DHT22;40485;53.172;5.416;2022-08-24T16:26:32;29.10;90.70
54590;DHT22;40485;53.172;5.416;2022-08-24T16:28:58;29.10;90.70
54590;DHT22;40485;53.172;5.416;2022-08-24T16:31:43;29.00;90.50
54590;DHT22;40485;53.172;5.416;2022-08-24T16:34:11;28.90;90.10
54590;DHT22;40485;53.172;5.416;2022-08-24T16:36:39;28.80;90.50
54590;DHT22;40485;53.172;5.416;2022-08-24T16:39:05;28.80;90.40
54590;DHT22;40485;53.172;5.416;2022-08-24T16:41:30;28.80;90.40
54590;DHT22;40485;53.172;5.416;2022-08-24T16:43:56;28.80;90.60
54590;DHT22;40485;53.172;5.416;2022-08-24T16:46:22;28.70;90.50
54590;DHT22;40485;53.172;5.416;2022-08-24T16:48:47;28.60;90.40
54590;DHT22;40485;53.172;5.416;2022-08-24T16:51:13;28.50;90.50
54590;DHT22;40485;53.172;5.416;2022-08-24T16:53:39;28.40;90.50
54590;DHT22;40485;53.172;5.416;2022-08-24T16:56:04;28.30;90.60
54590;DHT22;40485;53.172;5.416;2022-08-24T16:58:33;28.50;90.70
54590;DHT22;40485;53.172;5.416;2022-08-24T17:00:59;28.50;90.80
54590;DHT22;40485;53.172;5.416;2022-08-24T17:03:25;28.50;90.80
54590;DHT22;40485;53.172;5.416;2022-08-24T17:05:51;28.50;90.80
54590;DHT22;40485;53.172;5.416;2022-08-24T17:08:16;28.40;90.60
54590;DHT22;40485;53.172;5.416;2022-08-24T17:10:42;28.40;91.00
54590;DHT22;40485;53.172;5.416;2022-08-24T17:13:08;28.30;90.90
54590;DHT22;40485;53.172;5.416;2022-08-24T17:15:34;28.30;91.00
54590;DHT22;40485;53.172;5.416;2022-08-24T17:18:00;28.20;90.90
54590;DHT22;40485;53.172;5.416;2022-08-24T17:20:27;28.20;91.20
54590;DHT22;40485;53.172;5.416;2022-08-24T17:22:53;28.20;91.10
54590;DHT22;40485;53.172;5.416;2022-08-24T17:25:19;28.10;91.20
54590;DHT22;40485;53.172;5.416;2022-08-24T17:27:45;28.00;91.30
54590;DHT22;40485;53.172;5.416;2022-08-24T17:30:11;27.90;91.40
54590;DHT22;40485;53.172;5.416;2022-08-24T17:32:36;27.90;91.30
54590;DHT22;40485;53.172;5.416;2022-08-24T17:35:02;27.80;91.50
54590;DHT22;40485;53.172;5.416;2022-08-24T17:37:29;27.90;91.60
54590;DHT22;40485;53.172;5.416;2022-08-24T17:39:55;27.80;91.60
54590;DHT22;40485;53.172;5.416;2022-08-24T17:42:21;27.70;92.10
54590;DHT22;40485;53.172;5.416;2022-08-24T17:44:47;27.70;91.80
54590;DHT22;40485;53.172;5.416;2022-08-24T17:47:13;27.60;91.80
54590;DHT22;40485;53.172;5.416;2022-08-24T17:49:38;27.60;92.00
54590;DHT22;40485;53.172;5.416;2022-08-24T17:52:04;27.50;92.00
54590;DHT22;40485;53.172;5.416;2022-08-24T17:54:30;27.50;92.20
54590;DHT22;40485;53.172;5.416;2022-08-24T17:56:56;27.50;92.20
54590;DHT22;40485;53.172;5.416;2022-08-24T17:59:24;27.40;92.20
54590;DHT22;40485;53.172;5.416;2022-08-24T18:01:53;27.40;92.30
54590;DHT22;40485;53.172;5.416;2022-08-24T18:04:19;27.40;92.40
54590;DHT22;40485;53.172;5.416;2022-08-24T18:06:45;27.30;92.50
54590;DHT22;40485;53.172;5.416;2022-08-24T18:09:14;27.20;92.60
54590;DHT22;40485;53.172;5.416;2022-08-24T18:11:40;27.20;92.30
54590;DHT22;40485;53.172;5.416;2022-08-24T18:14:05;27.10;92.60
54590;DHT22;40485;53.172;5.416;2022-08-24T18:16:31;27.10;92.40
54590;DHT22;40485;53.172;5.416;2022-08-24T18:18:56;27.10;92.40
54590;DHT22;40485;53.172;5.416;2022-08-24T18:21:22;27.00;92.50
54590;DHT22;40485;53.172;5.416;2022-08-24T18:23:48;26.90;92.40
54590;DHT22;40485;53.172;5.416;2022-08-24T18:26:24;26.80;92.50
54590;DHT22;40485;53.172;5.416;2022-08-24T18:28:50;26.80;92.40
54590;DHT22;40485;53.172;5.416;2022-08-24T18:31:16;26.80;92.50
54590;DHT22;40485;53.172;5.416;2022-08-24T18:33:42;26.80;92.40
54590;DHT22;40485;53.172;5.416;2022-08-24T18:36:07;26.70;92.30
54590;DHT22;40485;53.172;5.416;2022-08-24T18:38:33;26.70;92.50
54590;DHT22;40485;53.172;5.416;2022-08-24T18:40:59;26.60;92.20
54590;DHT22;40485;53.172;5.416;2022-08-24T18:43:25;26.60;92.20
54590;DHT22;40485;53.172;5.416;2022-08-24T18:45:51;26.50;92.10
54590;DHT22;40485;53.172;5.416;2022-08-24T18:48:17;26.50;92.10
54590;DHT22;40485;53.172;5.416;2022-08-24T18:50:43;26.50;92.20
54590;DHT22;40485;53.172;5.416;2022-08-24T18:53:08;26.60;92.10
54590;DHT22;40485;53.172;5.416;2022-08-24T18:55:37;26.60;91.90
54590;DHT22;40485;53.172;5.416;2022-08-24T18:58:03;26.60;92.00
54590;DHT22;40485;53.172;5.416;2022-08-24T19:00:30;26.50;92.20
54590;DHT22;40485;53.172;5.416;2022-08-24T19:02:57;26.50;92.00
54590;DHT22;40485;53.172;5.416;2022-08-24T19:05:23;26.40;92.00
54590;DHT22;40485;53.172;5.416;2022-08-24T19:07:50;26.40;92.10
54590;DHT22;40485;53.172;5.416;2022-08-24T19:10:17;26.30;92.30
54590;DHT22;40485;53.172;5.416;2022-08-24T19:12:44;26.30;92.20
54590;DHT22;40485;53.172;5.416;2022-08-24T19:15:10;26.30;92.40
54590;DHT22;40485;53.172;5.416;2022-08-24T19:17:36;26.30;92.50
54590;DHT22;40485;53.172;5.416;2022-08-24T19:20:02;26.20;92.50
54590;DHT22;40485;53.172;5.416;2022-08-24T19:22:28;26.20;92.50
54590;DHT22;40485;53.172;5.416;2022-08-24T19:24:54;26.20;92.60
54590;DHT22;40485;53.172;5.416;2022-08-24T19:27:20;26.10;92.50
54590;DHT22;40485;53.172;5.416;2022-08-24T19:29:46;26.10;92.60